createdAt,value
2023-05-11T00:00:44.908Z,100982.44
2023-05-11T00:03:11.722Z,100977.22
2023-05-11T00:05:38.397Z,100971.81
2023-05-11T00:08:05.058Z,100974.03
2023-05-11T00:10:31.597Z,100977.84
2023-05-11T00:12:58.172Z,100976.03
2023-05-11T00:15:24.801Z,100975.22
2023-05-11T00:17:51.416Z,100972.00
2023-05-11T00:20:18.455Z,100975.63
2023-05-11T00:22:45.295Z,100973.22
2023-05-11T00:25:11.797Z,100975.63
2023-05-11T00:27:38.382Z,100979.03
2023-05-11T00:30:05.530Z,100972.03
2023-05-11T00:32:32.086Z,100973.41
2023-05-11T00:34:58.649Z,100971.19
2023-05-11T00:37:26.121Z,100964.38
2023-05-11T00:39:52.809Z,100972.59
2023-05-11T00:42:19.371Z,100978.44
2023-05-11T00:44:45.980Z,100979.84
2023-05-11T00:47:12.593Z,100968.19
2023-05-11T00:49:39.985Z,100972.81
2023-05-11T00:52:06.731Z,100972.00
2023-05-11T00:54:33.350Z,100972.59
2023-05-11T00:56:59.908Z,100977.63
2023-05-11T00:59:27.338Z,100966.97
2023-05-11T01:01:54.198Z,100971.59
2023-05-11T01:04:20.997Z,100971.19
2023-05-11T01:07:12.222Z,100970.38
2023-05-11T01:09:54.022Z,100972.97
2023-05-11T01:12:38.696Z,100961.72
2023-05-11T01:15:24.029Z,100968.78
2023-05-11T01:18:22.925Z,100969.56
2023-05-11T01:20:52.902Z,100965.16
2023-05-11T01:23:37.395Z,100966.56
2023-05-11T01:26:16.001Z,100968.38
2023-05-11T01:29:13.517Z,100974.81
2023-05-11T01:31:46.430Z,100975.63
2023-05-11T01:34:22.672Z,100979.66
2023-05-11T01:37:05.110Z,100977.84
2023-05-11T01:39:49.724Z,100980.59
2023-05-11T01:42:24.219Z,100972.56
2023-05-11T01:44:53.410Z,100981.38
2023-05-11T01:47:23.413Z,100981.78
2023-05-11T01:49:52.352Z,100985.75
2023-05-11T01:52:21.737Z,100980.72
2023-05-11T01:54:52.461Z,100984.31
2023-05-11T01:57:19.727Z,100986.50
2023-05-11T01:59:47.424Z,100993.06
2023-05-11T02:02:15.032Z,100984.41
2023-05-11T02:04:42.567Z,100986.38
2023-05-11T02:07:11.968Z,100991.16
2023-05-11T02:09:39.411Z,100997.38
2023-05-11T02:12:07.728Z,100986.28
2023-05-11T02:14:36.818Z,100990.25
2023-05-11T02:17:05.464Z,100988.81
2023-05-11T02:19:35.441Z,100991.38
2023-05-11T02:22:03.239Z,100987.09
2023-05-11T02:24:31.016Z,100990.28
2023-05-11T02:26:59.060Z,100997.28
2023-05-11T02:29:26.325Z,100994.44
2023-05-11T02:32:00.520Z,100992.81
2023-05-11T02:34:29.571Z,100999.19
2023-05-11T02:37:06.959Z,100999.75
2023-05-11T02:39:35.664Z,101000.16
2023-05-11T02:42:13.046Z,101001.94
2023-05-11T02:44:44.411Z,101004.09
2023-05-11T02:47:15.014Z,101001.28
2023-05-11T02:49:44.275Z,101006.19
2023-05-11T02:52:12.772Z,101009.19
2023-05-11T02:54:40.337Z,101010.16
2023-05-11T02:57:07.235Z,101006.94
2023-05-11T02:59:33.901Z,101012.53
2023-05-11T03:02:01.023Z,101014.13
2023-05-11T03:04:28.033Z,101010.72
2023-05-11T03:06:54.647Z,101009.09
2023-05-11T03:09:21.270Z,101010.72
2023-05-11T03:11:47.834Z,101018.16
2023-05-11T03:14:15.346Z,101006.94
2023-05-11T03:16:42.496Z,101014.19
2023-05-11T03:19:09.978Z,101017.25
2023-05-11T03:21:38.272Z,101019.50
2023-05-11T03:24:07.118Z,101011.88
2023-05-11T03:26:35.918Z,101019.31
2023-05-11T03:29:03.197Z,101027.78
2023-05-11T03:31:29.925Z,101020.03
2023-05-11T03:33:57.456Z,101021.47
2023-05-11T03:36:25.432Z,101026.50
2023-05-11T03:38:56.575Z,101028.78
2023-05-11T03:41:25.932Z,101023.66
2023-05-11T03:43:54.317Z,101019.50
2023-05-11T03:46:23.661Z,101021.00
2023-05-11T03:48:51.328Z,101025.88
2023-05-11T03:51:18.131Z,101022.34
2023-05-11T03:53:44.662Z,101022.59
2023-05-11T03:56:11.353Z,101024.88
2023-05-11T03:58:41.245Z,101015.28
2023-05-11T04:01:11.064Z,101016.31
2023-05-11T04:03:52.192Z,101018.75
2023-05-11T04:06:19.600Z,101030.84
2023-05-11T04:08:46.233Z,101024.44
2023-05-11T04:11:12.775Z,101019.84
2023-05-11T04:13:39.409Z,101025.25
2023-05-11T04:16:06.620Z,101024.84
2023-05-11T04:18:33.219Z,101024.47
2023-05-11T04:20:59.985Z,101027.06
2023-05-11T04:23:26.564Z,101029.47
2023-05-11T04:25:54.633Z,101025.22
2023-05-11T04:28:22.324Z,101031.44
2023-05-11T04:30:56.467Z,101028.63
2023-05-11T04:33:23.643Z,101025.56
2023-05-11T04:35:51.780Z,101023.94
2023-05-11T04:38:19.239Z,101029.31
2023-05-11T04:40:45.964Z,101030.28
2023-05-11T04:43:12.516Z,101030.03
2023-05-11T04:45:39.130Z,101022.34
2023-05-11T04:48:06.690Z,101034.00
2023-05-11T04:50:33.500Z,101027.78
2023-05-11T04:53:00.028Z,101042.09
2023-05-11T04:55:26.537Z,101037.44
2023-05-11T04:57:52.979Z,101036.06
2023-05-11T05:00:20.480Z,101039.47
2023-05-11T05:02:47.332Z,101034.53
2023-05-11T05:05:13.819Z,101042.16
2023-05-11T05:07:40.485Z,101042.97
2023-05-11T05:10:09.008Z,101043.97
2023-05-11T05:12:36.903Z,101044.75
2023-05-11T05:15:04.199Z,101050.50
2023-05-11T05:17:30.765Z,101047.31
2023-05-11T05:19:58.128Z,101043.59
2023-05-11T05:22:25.913Z,101046.03
2023-05-11T05:24:52.636Z,101060.47
2023-05-11T05:27:19.121Z,101052.44
2023-05-11T05:29:45.726Z,101046.06
2023-05-11T05:32:12.184Z,101050.63
2023-05-11T05:34:38.738Z,101042.94
2023-05-11T05:37:05.255Z,101045.22
2023-05-11T05:39:31.658Z,101050.31
2023-05-11T05:41:58.195Z,101050.00
2023-05-11T05:44:24.672Z,101045.50
2023-05-11T05:46:51.167Z,101052.66
2023-05-11T05:49:17.651Z,101058.00
2023-05-11T05:51:44.249Z,101053.78
2023-05-11T05:54:11.383Z,101054.13
2023-05-11T05:56:37.816Z,101053.25
2023-05-11T05:59:04.383Z,101060.06
2023-05-11T06:01:31.304Z,101057.06
2023-05-11T06:03:58.100Z,101061.16
2023-05-11T06:06:25.091Z,101058.81
2023-05-11T06:08:51.668Z,101052.97
2023-05-11T06:11:18.163Z,101060.91
2023-05-11T06:13:44.674Z,101067.41
2023-05-11T06:16:11.227Z,101059.63
2023-05-11T06:18:37.703Z,101058.53
2023-05-11T06:21:04.288Z,101056.69
2023-05-11T06:23:30.787Z,101064.66
2023-05-11T06:25:57.897Z,101060.09
2023-05-11T06:28:24.849Z,101061.16
2023-05-11T06:30:52.127Z,101064.66
2023-05-11T06:33:19.075Z,101070.22
2023-05-11T06:35:46.216Z,101072.03
2023-05-11T06:38:16.174Z,101069.16
2023-05-11T06:40:42.754Z,101074.19
2023-05-11T06:43:09.287Z,101064.63
2023-05-11T06:45:35.801Z,101068.09
2023-05-11T06:48:03.425Z,101063.88
2023-05-11T06:50:30.267Z,101072.84
2023-05-11T06:52:56.888Z,101068.09
2023-05-11T06:55:23.460Z,101074.22
2023-05-11T06:57:49.954Z,101075.53
2023-05-11T07:00:17.277Z,101065.41
2023-05-11T07:02:44.001Z,101068.63
2023-05-11T07:05:10.475Z,101074.72
2023-05-11T07:07:36.947Z,101086.63
2023-05-11T07:10:03.611Z,101071.22
2023-05-11T07:12:30.142Z,101065.66
2023-05-11T07:14:56.703Z,101071.97
2023-05-11T07:17:23.412Z,101075.97
2023-05-11T07:19:52.238Z,101075.66
2023-05-11T07:22:18.945Z,101073.53
2023-05-11T07:24:45.425Z,101076.47
2023-05-11T07:27:11.941Z,101075.97
2023-05-11T07:29:38.505Z,101068.13
2023-05-11T07:32:05.207Z,101079.94
2023-05-11T07:34:31.650Z,101082.91
2023-05-11T07:36:58.139Z,101083.34
2023-05-11T07:39:24.677Z,101087.59
2023-05-11T07:41:51.252Z,101083.53
2023-05-11T07:44:18.096Z,101086.75
2023-05-11T07:46:44.722Z,101081.19
2023-05-11T07:49:17.229Z,101084.38
2023-05-11T07:51:50.492Z,101082.53
2023-05-11T07:54:18.233Z,101085.75
2023-05-11T07:56:46.202Z,101086.34
2023-05-11T07:59:12.668Z,101089.91
2023-05-11T08:01:39.237Z,101092.97
2023-05-11T08:04:05.729Z,101087.06
2023-05-11T08:06:32.499Z,101095.63
2023-05-11T08:08:58.994Z,101097.13
2023-05-11T08:11:26.302Z,101095.63
2023-05-11T08:13:52.892Z,101090.16
2023-05-11T08:16:19.433Z,101086.09
2023-05-11T08:18:46.172Z,101096.97
2023-05-11T08:21:12.731Z,101080.34
2023-05-11T08:23:39.396Z,101084.44
2023-05-11T08:26:05.910Z,101086.69
2023-05-11T08:28:32.683Z,101087.69
2023-05-11T08:31:00.513Z,101084.31
2023-05-11T08:33:36.429Z,101083.34
2023-05-11T08:36:04.824Z,101086.16
2023-05-11T08:38:31.349Z,101078.94
2023-05-11T08:40:58.070Z,101080.31
2023-05-11T08:43:26.571Z,101087.50
2023-05-11T08:45:58.106Z,101085.06
2023-05-11T08:48:24.879Z,101079.56
2023-05-11T08:50:51.991Z,101093.31
2023-05-11T08:53:18.558Z,101093.63
2023-05-11T08:55:46.850Z,101081.53
2023-05-11T08:58:19.361Z,101086.16
2023-05-11T09:00:47.156Z,101087.41
2023-05-11T09:03:14.673Z,101094.75
2023-05-11T09:05:43.664Z,101088.06
2023-05-11T09:08:12.499Z,101090.53
2023-05-11T09:10:39.327Z,101085.25
2023-05-11T09:13:06.409Z,101088.78
2023-05-11T09:15:37.228Z,101088.16
2023-05-11T09:18:04.981Z,101071.91
2023-05-11T09:20:33.274Z,101080.31
2023-05-11T09:23:00.715Z,101085.59
2023-05-11T09:25:32.300Z,101078.88
2023-05-11T09:28:00.343Z,101086.09
2023-05-11T09:30:27.618Z,101075.47
2023-05-11T09:32:58.420Z,101073.75
2023-05-11T09:35:25.947Z,101072.00
2023-05-11T09:38:05.064Z,101072.69
2023-05-11T09:40:34.686Z,101069.53
2023-05-11T09:43:03.283Z,101066.91
2023-05-11T09:45:41.693Z,101050.44
2023-05-11T09:48:17.189Z,101063.72
2023-05-11T09:50:43.909Z,101074.41
2023-05-11T09:53:11.028Z,101074.16
2023-05-11T09:55:37.677Z,101057.03
2023-05-11T09:58:04.674Z,101064.53
2023-05-11T10:00:32.171Z,101061.44
2023-05-11T10:03:08.392Z,101065.16
2023-05-11T10:05:36.497Z,101053.22
2023-05-11T10:08:06.082Z,101054.50
2023-05-11T10:10:33.707Z,101055.13
2023-05-11T10:13:02.514Z,101052.53
2023-05-11T10:15:32.233Z,101055.84
2023-05-11T10:18:02.757Z,101053.69
2023-05-11T10:20:29.213Z,101051.31
2023-05-11T10:22:56.447Z,101047.97
2023-05-11T10:25:23.939Z,101049.84
2023-05-11T10:27:51.158Z,101046.97
2023-05-11T10:30:21.931Z,101042.50
2023-05-11T10:32:49.551Z,101037.78
2023-05-11T10:35:16.403Z,101032.19
2023-05-11T10:37:43.383Z,101041.75
2023-05-11T10:40:11.297Z,101031.69
2023-05-11T10:42:56.503Z,101034.88
2023-05-11T10:45:29.740Z,101023.19
2023-05-11T10:47:56.190Z,101025.31
2023-05-11T10:50:29.086Z,101028.50
2023-05-11T10:53:27.299Z,101038.84
2023-05-11T10:56:10.135Z,101023.19
2023-05-11T10:58:57.263Z,101024.50
2023-05-11T11:01:40.212Z,101025.84
2023-05-11T11:04:08.901Z,101017.63
2023-05-11T11:06:37.292Z,101025.63
2023-05-11T11:09:08.707Z,101035.94
2023-05-11T11:11:39.177Z,101026.66
2023-05-11T11:14:09.295Z,101025.09
2023-05-11T11:16:37.062Z,101027.19
2023-05-11T11:19:35.759Z,101017.69
2023-05-11T11:22:02.931Z,101025.09
2023-05-11T11:24:49.651Z,101018.72
2023-05-11T11:27:16.272Z,101015.03
2023-05-11T11:30:21.908Z,101011.28
2023-05-11T11:33:07.361Z,101016.81
2023-05-11T11:35:40.025Z,101018.97
2023-05-11T11:38:08.680Z,101015.00
2023-05-11T11:40:49.455Z,101018.97
2023-05-11T11:43:22.680Z,101022.63
2023-05-11T11:45:56.689Z,101014.63
2023-05-11T11:48:29.417Z,101014.38
2023-05-11T11:51:10.522Z,101004.00
2023-05-11T11:53:46.122Z,101012.25
2023-05-11T11:56:15.846Z,101012.25
2023-05-11T11:58:45.224Z,101015.09
2023-05-11T12:01:23.031Z,101007.56
2023-05-11T12:04:04.882Z,101004.34
2023-05-11T12:06:40.993Z,101003.72
2023-05-11T12:09:08.363Z,101009.31
2023-05-11T12:11:35.192Z,101005.03
2023-05-11T12:14:02.576Z,101008.44
2023-05-11T12:16:29.691Z,101004.66
2023-05-11T12:19:01.127Z,101006.75
2023-05-11T12:21:33.923Z,101005.16
2023-05-11T12:24:02.885Z,101012.03
2023-05-11T12:26:31.097Z,101006.97
2023-05-11T12:29:27.049Z,101008.50
2023-05-11T12:31:53.914Z,101005.53
2023-05-11T12:34:25.295Z,101008.03
2023-05-11T12:36:53.961Z,101000.66
2023-05-11T12:39:25.453Z,100989.59
2023-05-11T12:41:55.228Z,100999.22
2023-05-11T12:44:23.978Z,100988.00
2023-05-11T12:46:51.936Z,100995.78
2023-05-11T12:49:26.381Z,100988.59
2023-05-11T12:51:59.558Z,100977.09
2023-05-11T12:54:31.284Z,100991.41
2023-05-11T12:56:58.531Z,100993.13
2023-05-11T12:59:25.723Z,100988.88
2023-05-11T13:01:52.468Z,100980.09
2023-05-11T13:04:28.932Z,100977.91
2023-05-11T13:06:55.456Z,100974.13
2023-05-11T13:09:26.354Z,100970.94
2023-05-11T13:12:17.995Z,100980.81
2023-05-11T13:14:46.239Z,100971.50
2023-05-11T13:17:13.085Z,100975.72
2023-05-11T13:19:39.893Z,100967.97
2023-05-11T13:22:07.199Z,100973.28
2023-05-11T13:24:34.693Z,100969.34
2023-05-11T13:27:01.510Z,100972.47
2023-05-11T13:29:28.344Z,100962.81
2023-05-11T13:31:55.045Z,100962.88
2023-05-11T13:34:21.649Z,100960.75
2023-05-11T13:36:48.518Z,100972.09
2023-05-11T13:39:15.238Z,100954.66
2023-05-11T13:41:41.852Z,100958.44
2023-05-11T13:44:08.449Z,100962.69
2023-05-11T13:46:35.268Z,100963.78
2023-05-11T13:49:01.951Z,100956.59
2023-05-11T13:51:28.438Z,100957.31
2023-05-11T13:53:54.899Z,100950.66
2023-05-11T13:56:22.073Z,100955.97
2023-05-11T13:58:48.794Z,100949.66
2023-05-11T14:01:15.591Z,100958.44
2023-05-11T14:03:42.153Z,100961.34
2023-05-11T14:06:08.827Z,100952.47
2023-05-11T14:08:35.315Z,100948.44
2023-05-11T14:11:01.962Z,100954.94
2023-05-11T14:13:28.502Z,100939.81
2023-05-11T14:16:04.046Z,100949.59
2023-05-11T14:18:31.127Z,100943.97
2023-05-11T14:21:01.514Z,100950.34
2023-05-11T14:23:29.232Z,100936.81
2023-05-11T14:25:55.814Z,100950.06
2023-05-11T14:28:22.300Z,100935.66
2023-05-11T14:30:48.860Z,100940.19
2023-05-11T14:33:15.504Z,100940.47
2023-05-11T14:35:42.121Z,100943.75
2023-05-11T14:38:08.743Z,100948.41
2023-05-11T14:40:35.419Z,100942.34
2023-05-11T14:43:02.646Z,100939.66
2023-05-11T14:45:29.182Z,100937.47
2023-05-11T14:47:55.821Z,100935.03
2023-05-11T14:50:22.436Z,100940.78
2023-05-11T14:52:49.024Z,100945.34
2023-05-11T14:55:15.914Z,100941.44
2023-05-11T14:57:43.370Z,100946.06
2023-05-11T15:00:11.108Z,100943.22
2023-05-11T15:02:37.699Z,100939.78
2023-05-11T15:05:07.624Z,100939.97
2023-05-11T15:07:34.183Z,100941.28
2023-05-11T15:10:01.950Z,100946.78
2023-05-11T15:12:29.371Z,100948.44
2023-05-11T15:14:56.335Z,100952.22
2023-05-11T15:17:22.824Z,100947.28
2023-05-11T15:19:49.617Z,100942.22
2023-05-11T15:22:17.524Z,100943.00
2023-05-11T15:24:44.286Z,100937.66
2023-05-11T15:27:11.281Z,100942.69
2023-05-11T15:29:37.835Z,100937.06
2023-05-11T15:32:04.655Z,100938.09
2023-05-11T15:34:31.119Z,100934.38
2023-05-11T15:36:58.651Z,100939.44
2023-05-11T15:39:25.410Z,100934.09
2023-05-11T15:41:52.015Z,100947.72
2023-05-11T15:44:18.509Z,100945.59
2023-05-11T15:46:44.971Z,100947.41
2023-05-11T15:49:11.498Z,100948.72
2023-05-11T15:51:38.064Z,100950.06
2023-05-11T15:54:04.657Z,100954.56
2023-05-11T15:56:31.191Z,100959.88
2023-05-11T15:58:57.683Z,100943.72
2023-05-11T16:01:24.342Z,100949.28
2023-05-11T16:03:51.420Z,100948.00
2023-05-11T16:06:17.957Z,100949.03
2023-05-11T16:08:45.023Z,100958.88
2023-05-11T16:11:11.728Z,100948.72
2023-05-11T16:13:38.262Z,100944.22
2023-05-11T16:16:05.183Z,100948.19
2023-05-11T16:18:31.814Z,100950.59
2023-05-11T16:20:58.393Z,100947.41
2023-05-11T16:23:25.481Z,100954.06
2023-05-11T16:25:52.236Z,100952.47
2023-05-11T16:28:19.227Z,100951.44
2023-05-11T16:30:46.008Z,100945.34
2023-05-11T16:33:12.739Z,100949.34
2023-05-11T16:35:39.243Z,100950.41
2023-05-11T16:38:06.198Z,100951.47
2023-05-11T16:40:32.902Z,100947.75
2023-05-11T16:42:59.307Z,100948.03
2023-05-11T16:45:26.007Z,100948.84
2023-05-11T16:47:52.708Z,100944.34
2023-05-11T16:50:19.653Z,100950.72
2023-05-11T16:52:46.264Z,100944.13
2023-05-11T16:55:13.216Z,100957.41
2023-05-11T16:57:39.830Z,100950.50
2023-05-11T17:00:07.191Z,100951.84
2023-05-11T17:02:34.035Z,100952.09
2023-05-11T17:05:00.891Z,100948.94
2023-05-11T17:07:27.624Z,100952.63
2023-05-11T17:09:57.367Z,100956.09
2023-05-11T17:12:24.261Z,100957.69
2023-05-11T17:14:50.926Z,100956.38
2023-05-11T17:17:17.758Z,100957.69
2023-05-11T17:19:44.419Z,100957.16
2023-05-11T17:22:11.168Z,100962.19
2023-05-11T17:24:40.990Z,100961.91
2023-05-11T17:27:07.943Z,100960.34
2023-05-11T17:29:34.515Z,100966.19
2023-05-11T17:32:01.209Z,100969.09
2023-05-11T17:34:28.741Z,100960.06
2023-05-11T17:36:55.713Z,100967.22
2023-05-11T17:39:22.297Z,100972.81
2023-05-11T17:41:48.783Z,100970.94
2023-05-11T17:44:15.336Z,100968.56
2023-05-11T17:46:42.033Z,100970.94
2023-05-11T17:49:08.886Z,100974.38
2023-05-11T17:51:35.703Z,100984.44
2023-05-11T17:54:02.215Z,100978.09
2023-05-11T17:56:28.868Z,100986.06
2023-05-11T17:58:56.191Z,100987.63
2023-05-11T18:01:22.923Z,100991.28
2023-05-11T18:03:50.215Z,100992.81
2023-05-11T18:06:18.096Z,100994.38
2023-05-11T18:08:45.061Z,100995.91
2023-05-11T18:11:12.997Z,101002.44
2023-05-11T18:13:39.858Z,101004.72
2023-05-11T18:16:07.202Z,101004.88
2023-05-11T18:18:34.263Z,101014.13
2023-05-11T18:21:08.178Z,101003.59
2023-05-11T18:23:34.873Z,101014.13
2023-05-11T18:26:01.547Z,101013.50
2023-05-11T18:28:28.630Z,101021.13
2023-05-11T18:30:55.807Z,101015.81
2023-05-11T18:33:22.307Z,101024.31
2023-05-11T18:35:51.397Z,101024.66
2023-05-11T18:38:18.306Z,101022.97
2023-05-11T18:40:45.248Z,101026.16
2023-05-11T18:43:12.404Z,101031.81
2023-05-11T18:45:40.937Z,101035.34
2023-05-11T18:48:07.851Z,101040.78
2023-05-11T18:50:34.811Z,101037.50
2023-05-11T18:53:02.197Z,101039.72
2023-05-11T18:55:30.892Z,101045.84
2023-05-11T18:57:58.002Z,101056.75
2023-05-11T19:00:24.735Z,101052.41
2023-05-11T19:02:52.179Z,101053.84
2023-05-11T19:05:19.348Z,101056.38
2023-05-11T19:07:46.349Z,101063.16
2023-05-11T19:10:12.926Z,101066.38
2023-05-11T19:12:39.455Z,101071.72
2023-05-11T19:15:06.653Z,101074.03
2023-05-11T19:17:33.516Z,101067.88
2023-05-11T19:20:00.048Z,101078.06
2023-05-11T19:22:26.843Z,101074.53
2023-05-11T19:24:53.596Z,101086.53
2023-05-11T19:27:20.160Z,101088.47
2023-05-11T19:29:49.460Z,101084.50
2023-05-11T19:32:16.288Z,101088.59
2023-05-11T19:34:44.044Z,101088.50
2023-05-11T19:37:10.774Z,101093.53
2023-05-11T19:39:37.208Z,101099.25
2023-05-11T19:42:03.899Z,101105.19
2023-05-11T19:44:33.229Z,101103.03
2023-05-11T19:46:59.967Z,101104.41
2023-05-11T19:49:27.968Z,101106.34
2023-05-11T19:51:54.548Z,101100.97
2023-05-11T19:54:21.071Z,101105.06
2023-05-11T19:56:47.683Z,101107.69
2023-05-11T19:59:14.186Z,101113.84
2023-05-11T20:01:40.753Z,101107.47
2023-05-11T20:04:07.380Z,101108.34
2023-05-11T20:06:36.428Z,101112.91
2023-05-11T20:09:03.038Z,101111.63
2023-05-11T20:11:31.175Z,101117.50
2023-05-11T20:14:00.656Z,101121.88
2023-05-11T20:16:28.218Z,101117.38
2023-05-11T20:18:54.800Z,101122.75
2023-05-11T20:21:21.369Z,101117.34
2023-05-11T20:23:47.950Z,101121.44
2023-05-11T20:26:14.592Z,101127.00
2023-05-11T20:28:41.222Z,101129.16
2023-05-11T20:31:09.540Z,101126.59
2023-05-11T20:36:05.801Z,101129.09
2023-05-11T20:38:32.626Z,101141.72
2023-05-11T20:40:59.429Z,101136.31
2023-05-11T20:43:26.098Z,101138.38
2023-05-11T20:45:52.950Z,101140.03
2023-05-11T20:48:28.563Z,101140.03
2023-05-11T20:51:02.909Z,101148.13
2023-05-11T20:53:30.922Z,101140.69
2023-05-11T20:55:57.603Z,101142.59
2023-05-11T20:58:24.123Z,101144.13
2023-05-11T21:00:50.722Z,101143.97
2023-05-11T21:03:17.522Z,101136.75
2023-05-11T21:05:44.248Z,101146.88
2023-05-11T21:08:10.764Z,101142.25
2023-05-11T21:10:37.337Z,101143.13
2023-05-11T21:13:03.972Z,101136.91
2023-05-11T21:15:30.464Z,101147.22
2023-05-11T21:17:57.114Z,101145.81
2023-05-11T21:20:23.756Z,101145.44
2023-05-11T21:22:50.410Z,101142.66
2023-05-11T21:25:17.015Z,101150.00
2023-05-11T21:27:43.568Z,101152.84
2023-05-11T21:30:11.108Z,101150.50
2023-05-11T21:32:37.779Z,101152.91
2023-05-11T21:35:04.832Z,101154.31
2023-05-11T21:37:33.787Z,101152.56
2023-05-11T21:40:00.435Z,101157.06
2023-05-11T21:42:28.622Z,101156.88
2023-05-11T21:44:55.152Z,101153.28
2023-05-11T21:47:21.834Z,101161.41
2023-05-11T21:49:50.701Z,101164.44
2023-05-11T21:52:18.554Z,101169.09
2023-05-11T21:54:45.070Z,101170.94
2023-05-11T21:57:11.739Z,101162.09
2023-05-11T21:59:38.291Z,101166.13
2023-05-11T22:02:05.083Z,101167.59
2023-05-11T22:04:31.874Z,101170.41
2023-05-11T22:07:01.892Z,101166.81
2023-05-11T22:09:28.746Z,101165.59
2023-05-11T22:11:55.192Z,101174.91
2023-05-11T22:14:24.125Z,101166.06
2023-05-11T22:16:50.735Z,101175.94
2023-05-11T22:19:19.518Z,101170.31
2023-05-11T22:21:46.194Z,101170.72
2023-05-11T22:24:15.959Z,101176.78
2023-05-11T22:26:42.516Z,101177.41
2023-05-11T22:29:09.471Z,101178.81
2023-05-11T22:31:36.039Z,101177.41
2023-05-11T22:34:02.678Z,101181.63
2023-05-11T22:36:29.684Z,101183.25
2023-05-11T22:38:56.620Z,101186.69
2023-05-11T22:41:23.309Z,101186.88
2023-05-11T22:43:49.840Z,101185.72
2023-05-11T22:46:17.240Z,101186.50
2023-05-11T22:48:44.064Z,101187.13
2023-05-11T22:51:10.602Z,101184.09
2023-05-11T22:53:37.174Z,101188.31
2023-05-11T22:56:05.041Z,101195.16
2023-05-11T22:58:31.785Z,101191.34
2023-05-11T23:00:58.348Z,101192.97
2023-05-11T23:03:26.790Z,101191.53
2023-05-11T23:05:54.222Z,101190.97
2023-05-11T23:08:26.115Z,101192.97
2023-05-11T23:10:52.999Z,101196.56
2023-05-11T23:13:19.896Z,101192.56
2023-05-11T23:15:46.391Z,101194.16
2023-05-11T23:18:13.035Z,101202.19
2023-05-11T23:20:39.531Z,101200.97
2023-05-11T23:23:06.067Z,101197.38
2023-05-11T23:25:32.576Z,101188.50
2023-05-11T23:27:59.244Z,101193.13
2023-05-11T23:30:26.119Z,101192.13
2023-05-11T23:32:52.640Z,101196.75
2023-05-11T23:35:19.431Z,101193.94
2023-05-11T23:37:46.359Z,101193.53
2023-05-11T23:40:12.994Z,101191.09
2023-05-11T23:42:39.544Z,101189.09
2023-05-11T23:45:08.062Z,101187.69
2023-05-11T23:47:35.145Z,101195.13
2023-05-11T23:50:01.977Z,101186.66
2023-05-11T23:52:29.697Z,101186.66
2023-05-11T23:54:56.178Z,101187.06
2023-05-11T23:57:22.630Z,101190.66
2023-05-11T23:59:49.159Z,101194.28
